sensor_id;sensor_type;location;lat;lon;timestamp;P1;durP1;ratioP1;P2;durP2;ratioP2
76123;SDS011;65173;48.066;20.976;2023-03-01T00:02:36;16.70;;;7.63;;
76123;SDS011;65173;48.066;20.976;2023-03-01T00:05:46;16.48;;;7.90;;
76123;SDS011;65173;48.066;20.976;2023-03-01T00:08:49;16.05;;;7.60;;
76123;SDS011;65173;48.066;20.976;2023-03-01T00:11:53;18.05;;;8.27;;
76123;SDS011;65173;48.066;20.976;2023-03-01T00:14:56;14.95;;;8.32;;
76123;SDS011;65173;48.066;20.976;2023-03-01T00:17:59;21.02;;;9.25;;
76123;SDS011;65173;48.066;20.976;2023-03-01T00:21:02;16.05;;;7.95;;
76123;SDS011;65173;48.066;20.976;2023-03-01T00:24:05;14.50;;;6.40;;
76123;SDS011;65173;48.066;20.976;2023-03-01T00:27:08;16.27;;;7.72;;
76123;SDS011;65173;48.066;20.976;2023-03-01T00:30:12;16.30;;;7.60;;
76123;SDS011;65173;48.066;20.976;2023-03-01T00:33:16;14.17;;;7.97;;
76123;SDS011;65173;48.066;20.976;2023-03-01T00:36:19;16.52;;;8.07;;
76123;SDS011;65173;48.066;20.976;2023-03-01T00:39:23;17.33;;;8.48;;
76123;SDS011;65173;48.066;20.976;2023-03-01T00:42:26;17.00;;;7.93;;
76123;SDS011;65173;48.066;20.976;2023-03-01T00:45:29;17.38;;;7.30;;
76123;SDS011;65173;48.066;20.976;2023-03-01T00:48:33;15.63;;;7.05;;
76123;SDS011;65173;48.066;20.976;2023-03-01T00:51:37;15.63;;;7.68;;
76123;SDS011;65173;48.066;20.976;2023-03-01T00:54:41;17.13;;;8.63;;
76123;SDS011;65173;48.066;20.976;2023-03-01T00:57:44;17.13;;;7.93;;
76123;SDS011;65173;48.066;20.976;2023-03-01T01:00:47;17.48;;;7.80;;
76123;SDS011;65173;48.066;20.976;2023-03-01T01:03:55;14.87;;;7.70;;
76123;SDS011;65173;48.066;20.976;2023-03-01T01:06:59;18.20;;;7.88;;
76123;SDS011;65173;48.066;20.976;2023-03-01T01:10:03;17.35;;;8.27;;
76123;SDS011;65173;48.066;20.976;2023-03-01T01:13:06;13.68;;;7.85;;
76123;SDS011;65173;48.066;20.976;2023-03-01T01:16:09;15.65;;;8.07;;
76123;SDS011;65173;48.066;20.976;2023-03-01T01:19:12;17.42;;;7.50;;
76123;SDS011;65173;48.066;20.976;2023-03-01T01:22:16;17.02;;;7.43;;
76123;SDS011;65173;48.066;20.976;2023-03-01T01:25:18;17.40;;;8.13;;
76123;SDS011;65173;48.066;20.976;2023-03-01T01:28:21;18.58;;;7.30;;
76123;SDS011;65173;48.066;20.976;2023-03-01T01:31:25;15.85;;;7.63;;
76123;SDS011;65173;48.066;20.976;2023-03-01T01:34:29;14.00;;;7.33;;
76123;SDS011;65173;48.066;20.976;2023-03-01T01:37:31;14.68;;;7.82;;
76123;SDS011;65173;48.066;20.976;2023-03-01T01:40:42;18.42;;;8.73;;
76123;SDS011;65173;48.066;20.976;2023-03-01T01:43:49;14.45;;;7.65;;
76123;SDS011;65173;48.066;20.976;2023-03-01T01:47:16;19.75;;;8.57;;
76123;SDS011;65173;48.066;20.976;2023-03-01T01:50:24;15.52;;;8.60;;
76123;SDS011;65173;48.066;20.976;2023-03-01T01:53:27;15.73;;;7.25;;
76123;SDS011;65173;48.066;20.976;2023-03-01T01:56:31;15.77;;;7.13;;
76123;SDS011;65173;48.066;20.976;2023-03-01T01:59:35;16.75;;;7.95;;
76123;SDS011;65173;48.066;20.976;2023-03-01T02:02:39;16.25;;;7.97;;
76123;SDS011;65173;48.066;20.976;2023-03-01T02:08:57;15.93;;;8.15;;
76123;SDS011;65173;48.066;20.976;2023-03-01T02:12:03;14.38;;;7.72;;
76123;SDS011;65173;48.066;20.976;2023-03-01T02:15:08;12.45;;;6.50;;
76123;SDS011;65173;48.066;20.976;2023-03-01T02:18:12;17.13;;;7.20;;
76123;SDS011;65173;48.066;20.976;2023-03-01T02:24:45;15.50;;;8.05;;
76123;SDS011;65173;48.066;20.976;2023-03-01T02:31:19;18.10;;;7.45;;
76123;SDS011;65173;48.066;20.976;2023-03-01T02:34:42;14.38;;;6.32;;
76123;SDS011;65173;48.066;20.976;2023-03-01T02:37:45;14.57;;;7.13;;
76123;SDS011;65173;48.066;20.976;2023-03-01T02:40:50;17.42;;;7.13;;
76123;SDS011;65173;48.066;20.976;2023-03-01T02:43:53;13.55;;;5.93;;
76123;SDS011;65173;48.066;20.976;2023-03-01T02:47:01;13.82;;;6.93;;
76123;SDS011;65173;48.066;20.976;2023-03-01T02:50:24;11.73;;;5.97;;
76123;SDS011;65173;48.066;20.976;2023-03-01T02:53:38;13.38;;;6.22;;
76123;SDS011;65173;48.066;20.976;2023-03-01T02:56:43;14.05;;;5.95;;
76123;SDS011;65173;48.066;20.976;2023-03-01T02:59:47;13.70;;;5.67;;
76123;SDS011;65173;48.066;20.976;2023-03-01T03:02:52;14.63;;;5.85;;
76123;SDS011;65173;48.066;20.976;2023-03-01T03:05:58;16.13;;;6.00;;
76123;SDS011;65173;48.066;20.976;2023-03-01T03:09:01;14.73;;;6.63;;
76123;SDS011;65173;48.066;20.976;2023-03-01T03:12:05;15.82;;;6.82;;
76123;SDS011;65173;48.066;20.976;2023-03-01T03:15:09;18.50;;;7.93;;
76123;SDS011;65173;48.066;20.976;2023-03-01T03:18:16;19.52;;;8.75;;
76123;SDS011;65173;48.066;20.976;2023-03-01T03:21:19;17.42;;;7.60;;
76123;SDS011;65173;48.066;20.976;2023-03-01T03:24:22;15.00;;;7.35;;
76123;SDS011;65173;48.066;20.976;2023-03-01T03:27:25;12.18;;;7.05;;
76123;SDS011;65173;48.066;20.976;2023-03-01T03:30:31;12.63;;;5.87;;
76123;SDS011;65173;48.066;20.976;2023-03-01T03:33:33;12.60;;;6.32;;
76123;SDS011;65173;48.066;20.976;2023-03-01T03:36:36;12.02;;;6.13;;
76123;SDS011;65173;48.066;20.976;2023-03-01T03:39:40;14.63;;;7.07;;
76123;SDS011;65173;48.066;20.976;2023-03-01T03:42:42;12.27;;;5.25;;
76123;SDS011;65173;48.066;20.976;2023-03-01T03:45:46;12.80;;;5.72;;
76123;SDS011;65173;48.066;20.976;2023-03-01T03:48:49;12.50;;;5.13;;
76123;SDS011;65173;48.066;20.976;2023-03-01T03:51:52;11.85;;;4.82;;
76123;SDS011;65173;48.066;20.976;2023-03-01T03:54:58;8.77;;;4.40;;
76123;SDS011;65173;48.066;20.976;2023-03-01T03:58:02;11.63;;;5.00;;
76123;SDS011;65173;48.066;20.976;2023-03-01T04:01:09;13.33;;;4.23;;
76123;SDS011;65173;48.066;20.976;2023-03-01T04:04:12;9.13;;;4.30;;
76123;SDS011;65173;48.066;20.976;2023-03-01T04:07:15;10.10;;;3.97;;
76123;SDS011;65173;48.066;20.976;2023-03-01T04:10:18;6.77;;;3.53;;
76123;SDS011;65173;48.066;20.976;2023-03-01T04:13:23;7.65;;;3.58;;
76123;SDS011;65173;48.066;20.976;2023-03-01T04:16:27;8.57;;;4.03;;
76123;SDS011;65173;48.066;20.976;2023-03-01T04:19:31;5.68;;;2.65;;
76123;SDS011;65173;48.066;20.976;2023-03-01T04:22:38;5.30;;;2.40;;
76123;SDS011;65173;48.066;20.976;2023-03-01T04:25:45;10.52;;;3.67;;
76123;SDS011;65173;48.066;20.976;2023-03-01T04:28:56;6.10;;;3.35;;
76123;SDS011;65173;48.066;20.976;2023-03-01T04:31:59;6.27;;;2.47;;
76123;SDS011;65173;48.066;20.976;2023-03-01T04:35:02;7.85;;;3.85;;
76123;SDS011;65173;48.066;20.976;2023-03-01T04:38:05;8.77;;;3.67;;
76123;SDS011;65173;48.066;20.976;2023-03-01T04:41:10;6.50;;;3.33;;
76123;SDS011;65173;48.066;20.976;2023-03-01T04:44:13;9.43;;;3.63;;
76123;SDS011;65173;48.066;20.976;2023-03-01T04:47:16;5.35;;;2.88;;
76123;SDS011;65173;48.066;20.976;2023-03-01T04:50:19;5.88;;;1.88;;
76123;SDS011;65173;48.066;20.976;2023-03-01T04:53:24;9.45;;;4.10;;
76123;SDS011;65173;48.066;20.976;2023-03-01T04:56:27;6.93;;;2.75;;
76123;SDS011;65173;48.066;20.976;2023-03-01T04:59:31;8.13;;;3.30;;
76123;SDS011;65173;48.066;20.976;2023-03-01T05:02:34;6.23;;;3.10;;
76123;SDS011;65173;48.066;20.976;2023-03-01T05:05:38;8.27;;;3.67;;
76123;SDS011;65173;48.066;20.976;2023-03-01T05:08:41;8.32;;;4.35;;
76123;SDS011;65173;48.066;20.976;2023-03-01T05:11:44;6.00;;;4.17;;
76123;SDS011;65173;48.066;20.976;2023-03-01T05:14:47;5.55;;;3.05;;
76123;SDS011;65173;48.066;20.976;2023-03-01T05:17:51;4.50;;;2.75;;
76123;SDS011;65173;48.066;20.976;2023-03-01T05:20:55;8.68;;;4.35;;
76123;SDS011;65173;48.066;20.976;2023-03-01T05:24:03;7.20;;;3.47;;
76123;SDS011;65173;48.066;20.976;2023-03-01T05:27:07;8.85;;;3.90;;
76123;SDS011;65173;48.066;20.976;2023-03-01T05:30:10;6.63;;;3.58;;
76123;SDS011;65173;48.066;20.976;2023-03-01T05:33:17;7.23;;;3.97;;
76123;SDS011;65173;48.066;20.976;2023-03-01T05:36:21;8.43;;;3.63;;
76123;SDS011;65173;48.066;20.976;2023-03-01T05:39:24;10.50;;;3.92;;
76123;SDS011;65173;48.066;20.976;2023-03-01T05:42:28;7.00;;;3.37;;
76123;SDS011;65173;48.066;20.976;2023-03-01T05:45:31;9.98;;;4.72;;
76123;SDS011;65173;48.066;20.976;2023-03-01T05:48:37;8.95;;;4.03;;
76123;SDS011;65173;48.066;20.976;2023-03-01T05:51:41;8.00;;;3.97;;
76123;SDS011;65173;48.066;20.976;2023-03-01T05:54:45;7.30;;;3.33;;
76123;SDS011;65173;48.066;20.976;2023-03-01T05:57:48;5.50;;;2.70;;
76123;SDS011;65173;48.066;20.976;2023-03-01T06:00:53;10.70;;;4.65;;
76123;SDS011;65173;48.066;20.976;2023-03-01T06:03:58;8.20;;;3.83;;
76123;SDS011;65173;48.066;20.976;2023-03-01T06:07:01;9.77;;;5.15;;
76123;SDS011;65173;48.066;20.976;2023-03-01T06:10:04;10.18;;;4.50;;
76123;SDS011;65173;48.066;20.976;2023-03-01T06:13:07;8.27;;;4.07;;
76123;SDS011;65173;48.066;20.976;2023-03-01T06:16:10;10.88;;;4.63;;
76123;SDS011;65173;48.066;20.976;2023-03-01T06:19:14;6.20;;;3.55;;
76123;SDS011;65173;48.066;20.976;2023-03-01T06:22:17;11.13;;;4.93;;
76123;SDS011;65173;48.066;20.976;2023-03-01T06:25:21;10.75;;;5.18;;
76123;SDS011;65173;48.066;20.976;2023-03-01T06:28:24;11.07;;;4.80;;
76123;SDS011;65173;48.066;20.976;2023-03-01T06:31:28;7.90;;;4.18;;
76123;SDS011;65173;48.066;20.976;2023-03-01T06:34:31;7.17;;;3.80;;
76123;SDS011;65173;48.066;20.976;2023-03-01T06:37:34;8.93;;;4.88;;
76123;SDS011;65173;48.066;20.976;2023-03-01T06:40:40;10.90;;;4.97;;
76123;SDS011;65173;48.066;20.976;2023-03-01T06:43:43;7.13;;;4.60;;
76123;SDS011;65173;48.066;20.976;2023-03-01T06:46:46;8.48;;;3.50;;
76123;SDS011;65173;48.066;20.976;2023-03-01T06:49:49;6.68;;;3.40;;
76123;SDS011;65173;48.066;20.976;2023-03-01T06:52:55;6.90;;;3.00;;
76123;SDS011;65173;48.066;20.976;2023-03-01T06:55:59;9.05;;;5.53;;
76123;SDS011;65173;48.066;20.976;2023-03-01T06:59:04;8.38;;;4.45;;
76123;SDS011;65173;48.066;20.976;2023-03-01T07:02:09;9.25;;;4.93;;
76123;SDS011;65173;48.066;20.976;2023-03-01T07:05:13;8.63;;;4.90;;
76123;SDS011;65173;48.066;20.976;2023-03-01T07:08:17;9.98;;;4.90;;
76123;SDS011;65173;48.066;20.976;2023-03-01T07:11:21;8.32;;;3.75;;
76123;SDS011;65173;48.066;20.976;2023-03-01T07:14:24;7.03;;;4.03;;
76123;SDS011;65173;48.066;20.976;2023-03-01T07:17:29;9.35;;;4.60;;
76123;SDS011;65173;48.066;20.976;2023-03-01T07:20:32;7.80;;;4.20;;
76123;SDS011;65173;48.066;20.976;2023-03-01T07:23:34;10.77;;;4.57;;
76123;SDS011;65173;48.066;20.976;2023-03-01T07:26:37;6.32;;;3.42;;
76123;SDS011;65173;48.066;20.976;2023-03-01T07:29:40;7.57;;;4.00;;
76123;SDS011;65173;48.066;20.976;2023-03-01T07:32:43;5.72;;;3.22;;
76123;SDS011;65173;48.066;20.976;2023-03-01T07:35:47;8.27;;;4.00;;
76123;SDS011;65173;48.066;20.976;2023-03-01T07:38:51;3.63;;;1.73;;
76123;SDS011;65173;48.066;20.976;2023-03-01T07:41:53;6.22;;;3.60;;
76123;SDS011;65173;48.066;20.976;2023-03-01T07:44:57;7.67;;;3.93;;
76123;SDS011;65173;48.066;20.976;2023-03-01T07:48:00;9.32;;;3.65;;
76123;SDS011;65173;48.066;20.976;2023-03-01T07:51:04;7.40;;;3.85;;
76123;SDS011;65173;48.066;20.976;2023-03-01T07:54:08;10.05;;;4.38;;
76123;SDS011;65173;48.066;20.976;2023-03-01T07:57:11;7.68;;;3.92;;
76123;SDS011;65173;48.066;20.976;2023-03-01T08:00:14;7.30;;;3.97;;
76123;SDS011;65173;48.066;20.976;2023-03-01T08:03:18;8.77;;;4.28;;
76123;SDS011;65173;48.066;20.976;2023-03-01T08:06:20;7.30;;;3.27;;
76123;SDS011;65173;48.066;20.976;2023-03-01T08:09:23;9.07;;;4.07;;
76123;SDS011;65173;48.066;20.976;2023-03-01T08:12:26;6.80;;;4.18;;
76123;SDS011;65173;48.066;20.976;2023-03-01T08:15:30;9.37;;;4.20;;
76123;SDS011;65173;48.066;20.976;2023-03-01T08:18:33;8.85;;;4.10;;
76123;SDS011;65173;48.066;20.976;2023-03-01T08:21:36;9.68;;;5.07;;
76123;SDS011;65173;48.066;20.976;2023-03-01T08:24:39;8.88;;;4.93;;
76123;SDS011;65173;48.066;20.976;2023-03-01T08:27:41;10.10;;;4.85;;
76123;SDS011;65173;48.066;20.976;2023-03-01T08:30:45;7.35;;;3.63;;
76123;SDS011;65173;48.066;20.976;2023-03-01T08:33:49;11.57;;;5.57;;
76123;SDS011;65173;48.066;20.976;2023-03-01T08:36:57;8.00;;;4.73;;
76123;SDS011;65173;48.066;20.976;2023-03-01T08:40:00;8.32;;;5.00;;
76123;SDS011;65173;48.066;20.976;2023-03-01T08:43:03;8.07;;;3.88;;
76123;SDS011;65173;48.066;20.976;2023-03-01T08:46:07;4.53;;;2.20;;
76123;SDS011;65173;48.066;20.976;2023-03-01T08:49:13;8.88;;;4.95;;
76123;SDS011;65173;48.066;20.976;2023-03-01T08:52:19;8.52;;;4.90;;
76123;SDS011;65173;48.066;20.976;2023-03-01T08:55:22;10.43;;;5.20;;
76123;SDS011;65173;48.066;20.976;2023-03-01T08:58:25;11.20;;;5.32;;
76123;SDS011;65173;48.066;20.976;2023-03-01T09:01:28;7.20;;;3.90;;
76123;SDS011;65173;48.066;20.976;2023-03-01T09:04:31;12.23;;;5.88;;
76123;SDS011;65173;48.066;20.976;2023-03-01T09:07:35;6.70;;;4.43;;
76123;SDS011;65173;48.066;20.976;2023-03-01T09:10:38;10.77;;;5.25;;
76123;SDS011;65173;48.066;20.976;2023-03-01T09:13:41;7.53;;;5.18;;
76123;SDS011;65173;48.066;20.976;2023-03-01T09:16:45;9.20;;;4.63;;
76123;SDS011;65173;48.066;20.976;2023-03-01T09:19:48;8.63;;;4.18;;
76123;SDS011;65173;48.066;20.976;2023-03-01T09:22:51;10.65;;;5.68;;
76123;SDS011;65173;48.066;20.976;2023-03-01T09:25:54;11.10;;;6.25;;
76123;SDS011;65173;48.066;20.976;2023-03-01T09:28:57;7.82;;;4.32;;
76123;SDS011;65173;48.066;20.976;2023-03-01T09:32:00;7.95;;;5.10;;
76123;SDS011;65173;48.066;20.976;2023-03-01T09:35:03;13.65;;;6.20;;
76123;SDS011;65173;48.066;20.976;2023-03-01T09:38:07;10.17;;;5.73;;
76123;SDS011;65173;48.066;20.976;2023-03-01T09:41:11;11.52;;;4.25;;
76123;SDS011;65173;48.066;20.976;2023-03-01T09:47:29;8.70;;;4.73;;
76123;SDS011;65173;48.066;20.976;2023-03-01T09:50:35;9.75;;;5.75;;
76123;SDS011;65173;48.066;20.976;2023-03-01T09:53:42;11.18;;;6.78;;
76123;SDS011;65173;48.066;20.976;2023-03-01T10:00:32;11.52;;;5.13;;
76123;SDS011;65173;48.066;20.976;2023-03-01T10:03:46;9.45;;;5.15;;
76123;SDS011;65173;48.066;20.976;2023-03-01T10:10:16;8.33;;;5.73;;
76123;SDS011;65173;48.066;20.976;2023-03-01T10:16:52;6.95;;;4.85;;
76123;SDS011;65173;48.066;20.976;2023-03-01T10:20:14;10.80;;;6.60;;
76123;SDS011;65173;48.066;20.976;2023-03-01T10:23:24;9.27;;;5.75;;
76123;SDS011;65173;48.066;20.976;2023-03-01T10:29:55;8.32;;;6.07;;
76123;SDS011;65173;48.066;20.976;2023-03-01T10:33:12;8.35;;;5.57;;
76123;SDS011;65173;48.066;20.976;2023-03-01T10:36:19;10.38;;;5.63;;
76123;SDS011;65173;48.066;20.976;2023-03-01T10:39:24;8.60;;;5.60;;
76123;SDS011;65173;48.066;20.976;2023-03-01T10:42:29;9.07;;;5.73;;
76123;SDS011;65173;48.066;20.976;2023-03-01T10:45:36;9.75;;;5.85;;
76123;SDS011;65173;48.066;20.976;2023-03-01T10:48:41;10.32;;;5.70;;
76123;SDS011;65173;48.066;20.976;2023-03-01T10:51:46;6.63;;;4.57;;
76123;SDS011;65173;48.066;20.976;2023-03-01T10:54:55;8.13;;;4.95;;
76123;SDS011;65173;48.066;20.976;2023-03-01T11:04:18;8.80;;;5.43;;
76123;SDS011;65173;48.066;20.976;2023-03-01T11:07:20;8.45;;;5.18;;
76123;SDS011;65173;48.066;20.976;2023-03-01T11:10:28;8.20;;;5.30;;
76123;SDS011;65173;48.066;20.976;2023-03-01T11:13:35;9.47;;;5.33;;
76123;SDS011;65173;48.066;20.976;2023-03-01T11:16:41;8.27;;;4.55;;
76123;SDS011;65173;48.066;20.976;2023-03-01T11:19:59;5.65;;;4.40;;
76123;SDS011;65173;48.066;20.976;2023-03-01T11:23:25;6.60;;;4.33;;
76123;SDS011;65173;48.066;20.976;2023-03-01T11:26:30;8.13;;;5.05;;
76123;SDS011;65173;48.066;20.976;2023-03-01T11:29:38;7.78;;;5.43;;
76123;SDS011;65173;48.066;20.976;2023-03-01T11:39:28;8.75;;;4.60;;
76123;SDS011;65173;48.066;20.976;2023-03-01T11:56:31;6.60;;;4.57;;
76123;SDS011;65173;48.066;20.976;2023-03-01T12:06:38;8.80;;;4.78;;
76123;SDS011;65173;48.066;20.976;2023-03-01T12:13:17;8.18;;;4.88;;
76123;SDS011;65173;48.066;20.976;2023-03-01T12:27:32;6.97;;;3.97;;
76123;SDS011;65173;48.066;20.976;2023-03-01T12:31:07;6.97;;;3.97;;
76123;SDS011;65173;48.066;20.976;2023-03-01T12:48:51;3.35;;;2.88;;
76123;SDS011;65173;48.066;20.976;2023-03-01T12:51:43;6.45;;;2.47;;
76123;SDS011;65173;48.066;20.976;2023-03-01T12:54:54;3.77;;;2.83;;
76123;SDS011;65173;48.066;20.976;2023-03-01T13:11:41;2.78;;;1.58;;
76123;SDS011;65173;48.066;20.976;2023-03-01T13:14:45;2.67;;;1.67;;
76123;SDS011;65173;48.066;20.976;2023-03-01T13:17:55;1.80;;;1.65;;
76123;SDS011;65173;48.066;20.976;2023-03-01T13:21:02;3.72;;;2.03;;
76123;SDS011;65173;48.066;20.976;2023-03-01T13:24:26;2.58;;;1.50;;
76123;SDS011;65173;48.066;20.976;2023-03-01T13:27:41;3.00;;;1.80;;
76123;SDS011;65173;48.066;20.976;2023-03-01T13:30:48;2.15;;;1.83;;
76123;SDS011;65173;48.066;20.976;2023-03-01T13:36:54;2.87;;;1.30;;
76123;SDS011;65173;48.066;20.976;2023-03-01T13:43:31;2.72;;;2.20;;
76123;SDS011;65173;48.066;20.976;2023-03-01T13:46:36;3.88;;;1.50;;
76123;SDS011;65173;48.066;20.976;2023-03-01T13:49:49;2.55;;;1.42;;
76123;SDS011;65173;48.066;20.976;2023-03-01T13:52:57;2.20;;;1.15;;
76123;SDS011;65173;48.066;20.976;2023-03-01T13:56:15;2.75;;;1.30;;
76123;SDS011;65173;48.066;20.976;2023-03-01T13:59:21;4.27;;;2.10;;
76123;SDS011;65173;48.066;20.976;2023-03-01T14:02:28;1.83;;;1.30;;
76123;SDS011;65173;48.066;20.976;2023-03-01T14:05:31;3.00;;;1.38;;
76123;SDS011;65173;48.066;20.976;2023-03-01T14:08:36;2.83;;;1.20;;
76123;SDS011;65173;48.066;20.976;2023-03-01T14:11:54;2.65;;;1.63;;
76123;SDS011;65173;48.066;20.976;2023-03-01T14:18:26;3.15;;;1.42;;
76123;SDS011;65173;48.066;20.976;2023-03-01T14:21:38;4.13;;;1.73;;
76123;SDS011;65173;48.066;20.976;2023-03-01T14:24:55;2.85;;;2.33;;
76123;SDS011;65173;48.066;20.976;2023-03-01T14:28:02;3.95;;;2.13;;
76123;SDS011;65173;48.066;20.976;2023-03-01T14:34:55;3.22;;;2.05;;
76123;SDS011;65173;48.066;20.976;2023-03-01T14:37:58;5.38;;;2.50;;
76123;SDS011;65173;48.066;20.976;2023-03-01T14:44:22;2.70;;;1.92;;
76123;SDS011;65173;48.066;20.976;2023-03-01T14:47:30;3.30;;;1.98;;
76123;SDS011;65173;48.066;20.976;2023-03-01T14:50:40;4.75;;;2.75;;
76123;SDS011;65173;48.066;20.976;2023-03-01T14:53:44;7.78;;;4.13;;
76123;SDS011;65173;48.066;20.976;2023-03-01T14:56:58;5.65;;;4.03;;
76123;SDS011;65173;48.066;20.976;2023-03-01T15:00:03;6.50;;;4.43;;
76123;SDS011;65173;48.066;20.976;2023-03-01T15:03:12;7.53;;;4.17;;
76123;SDS011;65173;48.066;20.976;2023-03-01T15:06:21;11.70;;;4.75;;
76123;SDS011;65173;48.066;20.976;2023-03-01T15:09:25;8.05;;;5.05;;
76123;SDS011;65173;48.066;20.976;2023-03-01T15:15:32;5.57;;;4.00;;
76123;SDS011;65173;48.066;20.976;2023-03-01T15:18:48;8.35;;;4.97;;
76123;SDS011;65173;48.066;20.976;2023-03-01T15:21:52;7.35;;;4.93;;
76123;SDS011;65173;48.066;20.976;2023-03-01T15:24:56;18.33;;;4.65;;
76123;SDS011;65173;48.066;20.976;2023-03-01T15:27:59;13.10;;;5.93;;
76123;SDS011;65173;48.066;20.976;2023-03-01T15:34:29;6.67;;;3.70;;
76123;SDS011;65173;48.066;20.976;2023-03-01T15:40:50;7.43;;;4.15;;
76123;SDS011;65173;48.066;20.976;2023-03-01T15:43:53;11.17;;;5.10;;
76123;SDS011;65173;48.066;20.976;2023-03-01T15:46:58;13.55;;;7.38;;
76123;SDS011;65173;48.066;20.976;2023-03-01T15:50:02;21.23;;;9.43;;
76123;SDS011;65173;48.066;20.976;2023-03-01T15:53:06;34.17;;;16.33;;
76123;SDS011;65173;48.066;20.976;2023-03-01T15:56:14;20.20;;;10.10;;
76123;SDS011;65173;48.066;20.976;2023-03-01T15:59:17;7.85;;;3.88;;
76123;SDS011;65173;48.066;20.976;2023-03-01T16:02:21;7.03;;;4.07;;
76123;SDS011;65173;48.066;20.976;2023-03-01T16:05:29;12.40;;;5.83;;
76123;SDS011;65173;48.066;20.976;2023-03-01T16:08:33;31.73;;;14.27;;
76123;SDS011;65173;48.066;20.976;2023-03-01T16:11:36;50.20;;;23.73;;
76123;SDS011;65173;48.066;20.976;2023-03-01T16:14:40;64.90;;;22.20;;
76123;SDS011;65173;48.066;20.976;2023-03-01T16:17:43;86.68;;;26.90;;
76123;SDS011;65173;48.066;20.976;2023-03-01T16:20:56;20.35;;;9.15;;
76123;SDS011;65173;48.066;20.976;2023-03-01T16:24:00;11.35;;;5.25;;
76123;SDS011;65173;48.066;20.976;2023-03-01T16:27:03;21.45;;;10.52;;
76123;SDS011;65173;48.066;20.976;2023-03-01T16:30:06;25.33;;;11.20;;
76123;SDS011;65173;48.066;20.976;2023-03-01T16:33:13;31.05;;;10.98;;
76123;SDS011;65173;48.066;20.976;2023-03-01T16:36:35;19.77;;;8.37;;
76123;SDS011;65173;48.066;20.976;2023-03-01T16:39:39;15.13;;;7.10;;
76123;SDS011;65173;48.066;20.976;2023-03-01T16:42:42;19.45;;;7.90;;
76123;SDS011;65173;48.066;20.976;2023-03-01T16:45:45;13.40;;;5.73;;
76123;SDS011;65173;48.066;20.976;2023-03-01T16:48:49;15.40;;;7.88;;
76123;SDS011;65173;48.066;20.976;2023-03-01T16:51:55;16.13;;;7.28;;
76123;SDS011;65173;48.066;20.976;2023-03-01T16:54:57;17.77;;;7.32;;
76123;SDS011;65173;48.066;20.976;2023-03-01T16:58:00;22.55;;;9.35;;
76123;SDS011;65173;48.066;20.976;2023-03-01T17:01:08;18.38;;;8.63;;
76123;SDS011;65173;48.066;20.976;2023-03-01T17:04:13;21.50;;;8.55;;
76123;SDS011;65173;48.066;20.976;2023-03-01T17:07:16;17.33;;;8.27;;
76123;SDS011;65173;48.066;20.976;2023-03-01T17:10:19;19.17;;;7.97;;
76123;SDS011;65173;48.066;20.976;2023-03-01T17:13:22;14.55;;;6.63;;
76123;SDS011;65173;48.066;20.976;2023-03-01T17:16:26;15.37;;;8.40;;
76123;SDS011;65173;48.066;20.976;2023-03-01T17:19:29;32.72;;;16.60;;
76123;SDS011;65173;48.066;20.976;2023-03-01T17:22:34;12.30;;;7.85;;
76123;SDS011;65173;48.066;20.976;2023-03-01T17:25:40;8.27;;;3.67;;
76123;SDS011;65173;48.066;20.976;2023-03-01T17:28:46;7.25;;;3.47;;
76123;SDS011;65173;48.066;20.976;2023-03-01T17:31:53;5.43;;;3.03;;
76123;SDS011;65173;48.066;20.976;2023-03-01T17:34:58;4.25;;;2.42;;
76123;SDS011;65173;48.066;20.976;2023-03-01T17:38:01;7.33;;;3.50;;
76123;SDS011;65173;48.066;20.976;2023-03-01T17:41:05;8.00;;;3.97;;
76123;SDS011;65173;48.066;20.976;2023-03-01T17:44:08;10.13;;;3.78;;
76123;SDS011;65173;48.066;20.976;2023-03-01T17:47:11;3.90;;;2.57;;
76123;SDS011;65173;48.066;20.976;2023-03-01T17:50:14;9.40;;;4.25;;
76123;SDS011;65173;48.066;20.976;2023-03-01T17:53:18;6.22;;;3.42;;
76123;SDS011;65173;48.066;20.976;2023-03-01T17:56:21;7.15;;;3.70;;
76123;SDS011;65173;48.066;20.976;2023-03-01T17:59:24;11.18;;;4.45;;
76123;SDS011;65173;48.066;20.976;2023-03-01T18:02:32;9.40;;;4.43;;
76123;SDS011;65173;48.066;20.976;2023-03-01T18:05:35;10.38;;;4.55;;
76123;SDS011;65173;48.066;20.976;2023-03-01T18:08:39;10.17;;;5.10;;
76123;SDS011;65173;48.066;20.976;2023-03-01T18:11:42;13.43;;;5.82;;
76123;SDS011;65173;48.066;20.976;2023-03-01T18:14:48;11.05;;;6.07;;
76123;SDS011;65173;48.066;20.976;2023-03-01T18:17:54;10.10;;;5.33;;
76123;SDS011;65173;48.066;20.976;2023-03-01T18:20:59;8.80;;;3.85;;
76123;SDS011;65173;48.066;20.976;2023-03-01T18:24:02;11.40;;;6.20;;
76123;SDS011;65173;48.066;20.976;2023-03-01T18:27:06;8.98;;;4.72;;
76123;SDS011;65173;48.066;20.976;2023-03-01T18:30:10;8.48;;;4.03;;
76123;SDS011;65173;48.066;20.976;2023-03-01T18:33:13;5.60;;;3.33;;
76123;SDS011;65173;48.066;20.976;2023-03-01T18:36:19;10.35;;;3.78;;
76123;SDS011;65173;48.066;20.976;2023-03-01T18:39:24;11.23;;;5.00;;
76123;SDS011;65173;48.066;20.976;2023-03-01T18:42:27;13.07;;;5.20;;
76123;SDS011;65173;48.066;20.976;2023-03-01T18:45:30;5.40;;;2.97;;
76123;SDS011;65173;48.066;20.976;2023-03-01T18:48:34;10.90;;;5.73;;
76123;SDS011;65173;48.066;20.976;2023-03-01T18:51:38;9.48;;;5.03;;
76123;SDS011;65173;48.066;20.976;2023-03-01T18:54:41;12.10;;;5.85;;
76123;SDS011;65173;48.066;20.976;2023-03-01T18:57:44;15.10;;;6.00;;
76123;SDS011;65173;48.066;20.976;2023-03-01T19:00:48;11.93;;;5.00;;
76123;SDS011;65173;48.066;20.976;2023-03-01T19:03:52;13.50;;;6.10;;
76123;SDS011;65173;48.066;20.976;2023-03-01T19:06:55;9.18;;;4.72;;
76123;SDS011;65173;48.066;20.976;2023-03-01T19:09:59;8.90;;;4.50;;
76123;SDS011;65173;48.066;20.976;2023-03-01T19:13:02;10.25;;;3.85;;
76123;SDS011;65173;48.066;20.976;2023-03-01T19:16:06;16.48;;;6.82;;
76123;SDS011;65173;48.066;20.976;2023-03-01T19:19:11;11.33;;;5.10;;
76123;SDS011;65173;48.066;20.976;2023-03-01T19:22:14;13.27;;;5.65;;
76123;SDS011;65173;48.066;20.976;2023-03-01T19:25:18;12.48;;;6.60;;
76123;SDS011;65173;48.066;20.976;2023-03-01T19:28:21;9.77;;;5.22;;
76123;SDS011;65173;48.066;20.976;2023-03-01T19:31:26;14.80;;;6.55;;
76123;SDS011;65173;48.066;20.976;2023-03-01T19:34:30;14.43;;;6.55;;
76123;SDS011;65173;48.066;20.976;2023-03-01T19:37:34;12.73;;;4.68;;
76123;SDS011;65173;48.066;20.976;2023-03-01T19:40:37;13.97;;;5.90;;
76123;SDS011;65173;48.066;20.976;2023-03-01T19:43:41;12.93;;;6.22;;
76123;SDS011;65173;48.066;20.976;2023-03-01T19:46:45;11.82;;;6.20;;
76123;SDS011;65173;48.066;20.976;2023-03-01T19:49:48;18.40;;;9.60;;
76123;SDS011;65173;48.066;20.976;2023-03-01T19:52:52;19.83;;;8.80;;
76123;SDS011;65173;48.066;20.976;2023-03-01T19:55:56;13.43;;;4.88;;
76123;SDS011;65173;48.066;20.976;2023-03-01T19:59:00;16.08;;;6.50;;
76123;SDS011;65173;48.066;20.976;2023-03-01T20:02:07;18.75;;;9.27;;
76123;SDS011;65173;48.066;20.976;2023-03-01T20:05:11;15.85;;;8.63;;
76123;SDS011;65173;48.066;20.976;2023-03-01T20:08:14;20.13;;;8.60;;
76123;SDS011;65173;48.066;20.976;2023-03-01T20:11:18;19.13;;;9.67;;
76123;SDS011;65173;48.066;20.976;2023-03-01T20:14:22;21.48;;;8.98;;
76123;SDS011;65173;48.066;20.976;2023-03-01T20:17:25;18.95;;;9.65;;
76123;SDS011;65173;48.066;20.976;2023-03-01T20:20:30;21.93;;;9.87;;
76123;SDS011;65173;48.066;20.976;2023-03-01T20:23:34;21.98;;;9.52;;